Time;durP1;ratioP1;P1;durP2;ratioP2;P2;SDS_P1;SDS_P2;PMS_P1;PMS_P2;Temp;Humidity;BMP_temperature;BMP_pressure;BME280_temperature;BME280_humidity;BME280_pressure;Samples;Min_cycle;Max_cycle;Signal;HPM_P1;HPM_P2
2021/09/19 00:00:38;;;;;;;1.67;1.57;;;14.80;99.90;;;;;;5071209;28;20237;-65
2021/09/19 00:03:06;;;;;;;1.50;1.40;;;14.80;99.90;;;;;;5066953;28;20230;-65
2021/09/19 00:05:33;;;;;;;1.53;1.43;;;14.80;99.90;;;;;;5066443;28;20207;-65
2021/09/19 00:08:00;;;;;;;2.60;1.50;;;14.80;99.90;;;;;;5069637;28;20667;-65
2021/09/19 00:10:27;;;;;;;1.73;1.57;;;14.80;99.90;;;;;;5069387;28;20266;-65
2021/09/19 00:12:54;;;;;;;2.20;1.73;;;14.90;99.90;;;;;;5069812;28;20204;-64
2021/09/19 00:15:22;;;;;;;1.70;1.60;;;14.80;99.90;;;;;;5069564;28;20277;-65
2021/09/19 00:17:49;;;;;;;2.57;1.50;;;14.90;99.90;;;;;;5068614;28;20243;-65
2021/09/19 00:20:18;;;;;;;1.27;1.20;;;14.90;99.80;;;;;;5085423;28;20375;-65
2021/09/19 00:22:45;;;;;;;2.27;1.60;;;14.90;99.80;;;;;;5070485;28;20197;-65
2021/09/19 00:25:13;;;;;;;4.47;1.93;;;14.90;99.80;;;;;;5067230;28;20193;-65
2021/09/19 00:27:41;;;;;;;2.30;1.70;;;14.90;99.80;;;;;;5057337;28;20558;-65
2021/09/19 00:30:10;;;;;;;2.20;2.00;;;14.90;99.80;;;;;;5068014;28;20217;-64
2021/09/19 00:32:38;;;;;;;4.73;1.40;;;14.90;99.30;;;;;;5069993;28;20204;-65
2021/09/19 00:35:06;;;;;;;1.67;1.40;;;14.90;99.30;;;;;;5069620;28;20219;-65
2021/09/19 00:37:35;;;;;;;3.83;1.20;;;14.90;99.10;;;;;;5065898;28;20232;-65
2021/09/19 00:40:02;;;;;;;2.67;1.67;;;14.90;98.80;;;;;;5067597;28;20232;-64
2021/09/19 00:42:29;;;;;;;1.67;1.40;;;14.90;98.60;;;;;;5068326;28;20204;-65
2021/09/19 00:44:59;;;;;;;1.63;1.53;;;14.90;98.50;;;;;;5068980;28;20198;-65
2021/09/19 00:47:27;;;;;;;1.60;1.43;;;14.90;98.20;;;;;;5069157;28;20228;-65
2021/09/19 00:49:54;;;;;;;2.53;1.47;;;14.90;98.10;;;;;;5069315;28;20201;-65
2021/09/19 00:52:22;;;;;;;1.37;1.27;;;14.90;97.80;;;;;;5069695;28;20204;-64
2021/09/19 00:54:51;;;;;;;1.77;1.20;;;14.90;97.80;;;;;;5069603;28;20300;-65
2021/09/19 00:57:19;;;;;;;1.10;1.00;;;14.90;97.70;;;;;;5063809;28;20589;-65
2021/09/19 00:59:49;;;;;;;3.83;1.60;;;14.90;97.70;;;;;;5067134;28;20661;-65
2021/09/19 01:02:17;;;;;;;6.67;1.63;;;14.90;97.70;;;;;;5069319;28;20590;-65
2021/09/19 01:04:44;;;;;;;2.27;1.10;;;14.90;97.70;;;;;;5067168;28;20213;-65
2021/09/19 01:07:11;;;;;;;1.30;1.20;;;15.00;97.80;;;;;;5076526;28;20567;-65
2021/09/19 01:09:40;;;;;;;1.27;1.13;;;15.00;98.00;;;;;;5067671;28;20582;-65
2021/09/19 01:12:12;;;;;;;5.83;1.57;;;15.00;98.10;;;;;;5068270;28;20192;-64
2021/09/19 01:14:41;;;;;;;2.10;1.20;;;15.00;98.00;;;;;;5073445;28;20196;-65
2021/09/19 01:17:08;;;;;;;4.20;1.50;;;15.00;98.10;;;;;;5069065;28;20615;-65
2021/09/19 01:19:37;;;;;;;2.43;1.30;;;15.00;98.20;;;;;;5069197;28;20219;-65
2021/09/19 01:22:06;;;;;;;8.23;1.70;;;15.00;98.30;;;;;;5067478;28;20625;-65
2021/09/19 01:24:35;;;;;;;3.20;1.40;;;15.00;98.40;;;;;;5062962;28;20199;-65
2021/09/19 01:27:03;;;;;;;4.07;1.47;;;15.00;98.10;;;;;;5058209;28;20277;-65
2021/09/19 01:29:30;;;;;;;5.87;1.70;;;15.00;98.20;;;;;;5061393;28;20189;-65
2021/09/19 01:31:58;;;;;;;4.00;1.43;;;15.00;98.00;;;;;;5062880;28;20299;-65
2021/09/19 01:34:25;;;;;;;5.33;1.40;;;15.00;98.10;;;;;;5067146;28;20201;-65
2021/09/19 01:36:53;;;;;;;6.43;1.40;;;15.00;98.50;;;;;;5061443;28;20205;-65
2021/09/19 01:39:20;;;;;;;3.77;1.40;;;15.00;98.30;;;;;;5068365;28;20272;-65
2021/09/19 01:41:51;;;;;;;2.63;1.60;;;15.00;98.20;;;;;;5067075;28;20188;-65
2021/09/19 01:44:18;;;;;;;6.73;1.50;;;14.90;98.00;;;;;;5069903;28;20274;-65
2021/09/19 01:46:44;;;;;;;2.13;1.40;;;14.90;97.80;;;;;;5067721;28;20201;-65
2021/09/19 01:49:11;;;;;;;1.77;1.30;;;14.90;97.90;;;;;;5068325;28;20197;-65
2021/09/19 01:51:38;;;;;;;6.73;1.90;;;14.90;98.00;;;;;;5068297;28;20212;-65
2021/09/19 01:54:05;;;;;;;1.93;1.40;;;14.90;98.20;;;;;;5068043;28;20230;-65
2021/09/19 01:56:32;;;;;;;1.57;1.47;;;15.00;98.30;;;;;;5065731;28;20675;-65
2021/09/19 01:59:01;;;;;;;3.37;1.63;;;14.90;98.30;;;;;;5075600;28;20203;-65
2021/09/19 02:01:31;;;;;;;12.83;2.57;;;14.90;98.30;;;;;;5068423;28;20193;-65
2021/09/19 02:03:58;;;;;;;2.63;2.07;;;14.90;98.40;;;;;;5066519;28;20197;-65
2021/09/19 02:06:25;;;;;;;1.90;1.80;;;14.90;98.60;;;;;;5072348;28;20208;-65
2021/09/19 02:08:52;;;;;;;5.73;1.60;;;14.90;98.80;;;;;;5068640;28;20698;-65
2021/09/19 02:11:21;;;;;;;3.37;1.60;;;14.90;98.80;;;;;;5069527;28;20216;-65
2021/09/19 02:13:48;;;;;;;3.50;1.43;;;14.90;98.80;;;;;;5067438;28;20275;-64
2021/09/19 02:16:20;;;;;;;1.57;1.40;;;14.90;98.60;;;;;;5080816;28;20283;-65
2021/09/19 02:18:47;;;;;;;10.90;2.27;;;14.90;98.50;;;;;;5067781;28;20200;-65
2021/09/19 02:21:15;;;;;;;4.77;2.30;;;14.90;98.60;;;;;;5073858;28;20273;-64
2021/09/19 02:23:42;;;;;;;4.40;2.00;;;14.90;98.60;;;;;;5069193;28;20197;-65
2021/09/19 02:26:09;;;;;;;3.53;1.83;;;14.90;98.30;;;;;;5063796;28;20644;-65
2021/09/19 02:28:37;;;;;;;3.57;2.47;;;14.80;98.20;;;;;;5082014;28;20204;-65
2021/09/19 02:31:04;;;;;;;6.83;3.20;;;14.80;98.00;;;;;;5067450;28;20267;-65
2021/09/19 02:33:32;;;;;;;6.73;3.00;;;14.80;97.90;;;;;;5079616;28;20205;-65
2021/09/19 02:35:59;;;;;;;3.33;2.10;;;14.80;98.00;;;;;;5068127;28;20197;-64
2021/09/19 02:38:26;;;;;;;2.73;2.30;;;14.80;98.20;;;;;;5080171;28;20219;-65
2021/09/19 02:40:53;;;;;;;4.73;2.00;;;14.80;98.10;;;;;;5066744;28;20193;-65
2021/09/19 02:43:21;;;;;;;5.17;2.20;;;14.80;98.00;;;;;;5066463;28;20205;-64
2021/09/19 02:45:48;;;;;;;2.53;2.03;;;14.80;98.00;;;;;;5068003;28;20279;-65
2021/09/19 02:48:15;;;;;;;3.93;2.00;;;14.80;97.90;;;;;;5066961;28;20651;-65
2021/09/19 02:50:44;;;;;;;2.13;1.90;;;14.70;97.80;;;;;;5067422;28;20220;-64
2021/09/19 02:53:11;;;;;;;5.03;2.43;;;14.80;97.90;;;;;;5072852;28;20564;-65
2021/09/19 02:55:38;;;;;;;5.47;2.20;;;14.80;97.80;;;;;;5071493;28;20308;-64
2021/09/19 02:58:05;;;;;;;4.50;1.87;;;14.70;97.70;;;;;;5065877;28;20248;-65
2021/09/19 03:00:32;;;;;;;6.13;2.03;;;14.70;97.80;;;;;;5067468;28;20197;-65
2021/09/19 03:02:59;;;;;;;1.50;1.40;;;14.70;97.90;;;;;;5067469;28;20204;-64
2021/09/19 03:05:26;;;;;;;7.37;1.60;;;14.70;98.00;;;;;;5068568;28;20549;-64
2021/09/19 03:07:55;;;;;;;9.23;1.80;;;14.70;98.10;;;;;;5066503;28;20303;-65
2021/09/19 03:10:24;;;;;;;9.57;1.80;;;14.70;98.20;;;;;;5065321;28;20205;-65
2021/09/19 03:12:51;;;;;;;1.97;1.40;;;14.70;98.40;;;;;;5070031;28;20730;-65
2021/09/19 03:15:18;;;;;;;4.13;1.30;;;14.60;98.30;;;;;;5066684;28;20208;-65
2021/09/19 03:17:45;;;;;;;3.13;1.40;;;14.60;98.50;;;;;;5067895;28;20197;-64
2021/09/19 03:20:15;;;;;;;4.63;1.70;;;14.60;98.60;;;;;;5069693;28;20569;-65
2021/09/19 03:22:42;;;;;;;5.33;1.53;;;14.60;98.60;;;;;;5071735;28;20197;-65
2021/09/19 03:25:12;;;;;;;2.83;1.30;;;14.60;98.50;;;;;;5066347;28;20193;-65
2021/09/19 03:27:39;;;;;;;1.43;1.33;;;14.60;98.30;;;;;;5058920;28;20198;-65
2021/09/19 03:30:08;;;;;;;3.80;1.30;;;14.60;98.10;;;;;;5068427;28;20244;-65
2021/09/19 03:32:35;;;;;;;6.20;1.70;;;14.60;97.70;;;;;;5071432;28;20703;-65
2021/09/19 03:35:03;;;;;;;4.13;1.40;;;14.60;97.50;;;;;;5069634;28;20292;-64
2021/09/19 03:37:30;;;;;;;4.53;1.57;;;14.60;97.00;;;;;;5071361;28;20205;-64
2021/09/19 03:39:56;;;;;;;1.20;1.20;;;14.60;96.60;;;;;;5069426;28;20276;-65
2021/09/19 03:42:25;;;;;;;1.10;1.00;;;14.50;96.20;;;;;;5068631;28;20194;-65
2021/09/19 03:44:55;;;;;;;3.57;1.47;;;14.50;96.20;;;;;;5067244;28;20296;-65
2021/09/19 03:47:22;;;;;;;11.60;1.80;;;14.50;95.70;;;;;;5071232;28;20189;-65
2021/09/19 03:49:49;;;;;;;5.73;1.20;;;14.40;95.50;;;;;;5069057;28;20201;-65
2021/09/19 03:52:16;;;;;;;3.70;1.83;;;14.40;95.60;;;;;;5070580;28;20221;-65
2021/09/19 03:54:43;;;;;;;9.73;1.47;;;14.40;95.70;;;;;;5079580;28;20235;-65
2021/09/19 03:57:10;;;;;;;9.20;2.10;;;14.30;95.80;;;;;;5066551;28;20208;-65
2021/09/19 03:59:38;;;;;;;5.57;1.57;;;14.40;95.90;;;;;;5068188;28;20201;-65
2021/09/19 04:02:05;;;;;;;7.80;1.87;;;14.40;96.00;;;;;;5068016;28;20665;-65
2021/09/19 04:04:32;;;;;;;3.63;1.37;;;14.30;95.80;;;;;;5070778;28;20224;-65
2021/09/19 04:06:59;;;;;;;4.60;1.93;;;14.40;95.80;;;;;;5070358;28;20204;-65
2021/09/19 04:09:26;;;;;;;5.80;1.80;;;14.40;95.80;;;;;;5069191;28;20185;-65
2021/09/19 04:11:55;;;;;;;3.40;1.80;;;14.40;95.80;;;;;;5067266;28;20797;-65
2021/09/19 04:14:22;;;;;;;8.50;1.90;;;14.40;95.90;;;;;;5061822;28;20193;-65
2021/09/19 04:16:50;;;;;;;9.33;2.80;;;14.40;95.90;;;;;;5070345;28;20208;-65
2021/09/19 04:19:17;;;;;;;6.00;3.10;;;14.40;95.80;;;;;;5070561;28;20586;-65
2021/09/19 04:21:44;;;;;;;3.30;2.00;;;14.30;95.70;;;;;;5070657;28;20204;-65
2021/09/19 04:24:11;;;;;;;4.17;1.87;;;14.30;95.60;;;;;;5071281;28;20201;-65
2021/09/19 04:26:38;;;;;;;3.30;1.93;;;14.30;95.40;;;;;;5062768;28;20279;-65
2021/09/19 04:29:05;;;;;;;2.03;1.50;;;14.30;94.20;;;;;;5069030;28;20279;-65
2021/09/19 04:31:32;;;;;;;1.80;1.37;;;14.30;93.80;;;;;;5069169;28;20223;-65
2021/09/19 04:34:00;;;;;;;3.67;1.80;;;14.20;93.40;;;;;;5068646;28;20204;-65
2021/09/19 04:36:28;;;;;;;3.63;2.13;;;14.20;93.50;;;;;;5077223;28;20296;-65
2021/09/19 04:38:55;;;;;;;3.50;1.80;;;14.20;94.30;;;;;;5068561;28;20291;-64
2021/09/19 04:41:21;;;;;;;2.43;1.87;;;14.20;95.40;;;;;;5068801;28;20200;-64
2021/09/19 04:43:49;;;;;;;3.00;1.63;;;14.20;95.70;;;;;;5067445;28;20207;-65
2021/09/19 04:46:15;;;;;;;2.10;1.90;;;14.20;96.10;;;;;;5068628;28;20211;-65
2021/09/19 04:48:42;;;;;;;2.43;1.90;;;14.10;96.10;;;;;;5069834;28;20252;-64
2021/09/19 04:51:11;;;;;;;7.50;1.80;;;14.10;95.80;;;;;;5069967;28;20304;-65
2021/09/19 04:53:37;;;;;;;3.43;2.00;;;14.10;95.50;;;;;;5076170;28;20192;-64
2021/09/19 04:56:05;;;;;;;2.13;1.83;;;14.10;94.80;;;;;;5067138;28;20259;-65
2021/09/19 04:58:32;;;;;;;2.90;1.77;;;14.10;94.40;;;;;;5068117;28;20196;-65
2021/09/19 05:00:58;;;;;;;4.07;2.30;;;14.10;93.90;;;;;;5068805;28;20189;-65
2021/09/19 05:03:25;;;;;;;3.80;1.80;;;14.10;93.70;;;;;;5066544;28;20235;-65
2021/09/19 05:05:52;;;;;;;1.60;1.50;;;14.10;93.90;;;;;;5069385;28;20204;-65
2021/09/19 05:08:21;;;;;;;7.73;1.73;;;14.10;94.10;;;;;;5069348;28;21051;-64
2021/09/19 05:10:48;;;;;;;2.10;1.80;;;14.10;94.50;;;;;;5068294;28;20661;-65
2021/09/19 05:13:15;;;;;;;4.67;1.97;;;14.10;95.10;;;;;;5065835;28;20259;-65
2021/09/19 05:15:42;;;;;;;1.73;1.63;;;14.10;95.40;;;;;;5068375;28;20196;-65
2021/09/19 05:18:09;;;;;;;2.90;1.97;;;14.10;95.60;;;;;;5067970;28;20746;-65
2021/09/19 05:20:36;;;;;;;1.60;1.50;;;14.10;95.00;;;;;;5067269;28;20207;-64
2021/09/19 05:23:03;;;;;;;7.23;1.77;;;14.10;94.70;;;;;;5067789;28;20200;-65
2021/09/19 05:25:31;;;;;;;3.47;1.80;;;14.10;94.40;;;;;;5066595;28;20237;-65
2021/09/19 05:27:58;;;;;;;3.83;1.93;;;14.10;94.30;;;;;;5075341;28;20291;-65
2021/09/19 05:30:25;;;;;;;2.90;1.70;;;14.00;94.60;;;;;;5066999;28;20204;-64
2021/09/19 05:32:52;;;;;;;3.70;1.60;;;14.00;94.80;;;;;;5076989;28;20213;-64
2021/09/19 05:35:19;;;;;;;1.87;1.77;;;14.00;95.00;;;;;;5071642;28;20199;-64
2021/09/19 05:37:46;;;;;;;2.50;1.47;;;14.00;95.10;;;;;;5069003;28;20287;-64
2021/09/19 05:40:15;;;;;;;2.47;1.90;;;14.00;95.00;;;;;;5067324;28;20196;-64
2021/09/19 05:42:43;;;;;;;2.63;1.63;;;14.00;94.50;;;;;;5067771;28;20257;-64
2021/09/19 05:45:12;;;;;;;6.73;2.03;;;13.90;94.30;;;;;;5066507;28;20207;-65
2021/09/19 05:47:38;;;;;;;3.07;1.57;;;13.90;94.40;;;;;;5067320;28;20199;-65
2021/09/19 05:50:07;;;;;;;1.70;1.57;;;13.90;94.60;;;;;;5066440;28;20614;-64
2021/09/19 05:52:34;;;;;;;2.50;1.40;;;13.90;95.00;;;;;;5067529;28;20215;-65
2021/09/19 05:55:01;;;;;;;2.77;1.50;;;13.80;94.90;;;;;;5067842;28;20430;-64
2021/09/19 05:57:27;;;;;;;2.27;1.40;;;13.90;95.20;;;;;;5066385;28;20211;-65
2021/09/19 05:59:56;;;;;;;2.43;1.33;;;13.90;95.40;;;;;;5066911;28;20199;-64
2021/09/19 06:02:23;;;;;;;6.80;1.70;;;13.90;95.60;;;;;;5066847;28;20554;-65
2021/09/19 06:04:50;;;;;;;3.53;1.70;;;13.90;95.80;;;;;;5068029;28;20210;-65
2021/09/19 06:07:17;;;;;;;4.77;1.63;;;13.90;95.90;;;;;;5068441;28;20191;-65
2021/09/19 06:09:43;;;;;;;8.17;2.30;;;13.90;96.10;;;;;;5066151;28;20410;-65
2021/09/19 06:12:10;;;;;;;2.20;1.97;;;13.90;96.40;;;;;;5065453;28;20349;-65
2021/09/19 06:14:37;;;;;;;4.80;2.13;;;13.90;96.60;;;;;;5067877;28;20298;-65
2021/09/19 06:17:06;;;;;;;3.77;1.77;;;13.90;96.90;;;;;;5066933;28;20204;-64
2021/09/19 06:19:33;;;;;;;9.23;2.20;;;13.90;96.80;;;;;;5068653;28;20227;-65
2021/09/19 06:22:01;;;;;;;2.00;1.57;;;13.80;96.70;;;;;;5066626;28;20690;-65
2021/09/19 06:24:29;;;;;;;2.83;1.63;;;13.90;96.60;;;;;;5068235;28;20285;-65
2021/09/19 06:26:56;;;;;;;3.57;1.67;;;13.80;96.20;;;;;;5066027;28;20202;-65
2021/09/19 06:29:23;;;;;;;1.97;1.57;;;13.80;95.60;;;;;;5065839;28;20208;-65
2021/09/19 06:31:50;;;;;;;2.10;1.50;;;13.80;95.30;;;;;;5067831;28;20243;-64
2021/09/19 06:34:19;;;;;;;6.67;1.57;;;13.90;95.00;;;;;;5067913;28;20532;-65
2021/09/19 06:36:46;;;;;;;1.60;1.40;;;13.90;94.70;;;;;;5067901;28;20632;-64
2021/09/19 06:39:13;;;;;;;3.07;1.43;;;14.00;94.30;;;;;;5056083;28;20208;-64
2021/09/19 06:41:40;;;;;;;1.43;1.40;;;14.10;94.30;;;;;;5065748;28;20233;-64
2021/09/19 06:44:07;;;;;;;1.63;1.53;;;14.10;94.20;;;;;;5066867;28;20259;-65
2021/09/19 06:46:34;;;;;;;3.33;1.77;;;14.10;94.30;;;;;;5067397;28;20612;-64
2021/09/19 06:49:02;;;;;;;3.13;1.40;;;14.10;94.50;;;;;;5077548;28;20201;-64
2021/09/19 06:51:30;;;;;;;3.23;1.40;;;14.10;94.70;;;;;;5061728;28;20203;-64
2021/09/19 06:53:57;;;;;;;4.13;1.50;;;14.10;94.80;;;;;;5067980;28;20193;-64
2021/09/19 06:56:24;;;;;;;4.30;1.63;;;13.70;94.30;;;;;;5065688;28;20695;-64
2021/09/19 06:58:54;;;;;;;2.13;1.47;;;14.00;94.20;;;;;;5071249;28;20675;-65
2021/09/19 07:01:22;;;;;;;1.47;1.37;;;14.10;94.20;;;;;;5069667;28;20651;-64
2021/09/19 07:03:49;;;;;;;1.83;1.30;;;14.10;94.10;;;;;;5068900;28;20197;-65
2021/09/19 07:06:17;;;;;;;3.33;1.73;;;14.10;94.20;;;;;;5077178;28;20285;-65
2021/09/19 07:08:45;;;;;;;1.90;1.40;;;14.00;94.00;;;;;;5074149;28;20196;-65
2021/09/19 07:11:12;;;;;;;1.80;1.50;;;14.00;94.00;;;;;;5070917;28;20199;-65
2021/09/19 07:13:39;;;;;;;3.67;1.50;;;14.00;94.20;;;;;;5077220;28;20229;-65
2021/09/19 07:16:06;;;;;;;2.50;1.57;;;14.10;94.60;;;;;;5071905;28;20561;-64
2021/09/19 07:18:33;;;;;;;2.43;1.80;;;14.00;94.80;;;;;;5071637;28;20209;-65
2021/09/19 07:21:00;;;;;;;3.47;1.90;;;14.10;95.10;;;;;;5071560;28;20262;-65
2021/09/19 07:23:27;;;;;;;3.60;1.60;;;14.10;95.40;;;;;;5077772;28;20253;-65
2021/09/19 07:25:55;;;;;;;1.97;1.30;;;14.10;95.20;;;;;;5077361;28;20219;-65
2021/09/19 07:28:23;;;;;;;1.70;1.27;;;14.20;95.20;;;;;;5069834;28;20208;-66
2021/09/19 07:30:50;;;;;;;3.53;1.23;;;14.30;94.60;;;;;;5070544;28;20208;-65
2021/09/19 07:33:18;;;;;;;1.50;1.40;;;14.30;94.30;;;;;;5078891;28;20319;-64
2021/09/19 07:35:45;;;;;;;1.77;1.67;;;14.20;94.00;;;;;;5071945;28;20204;-65
2021/09/19 07:38:12;;;;;;;1.73;1.13;;;14.20;94.30;;;;;;5071328;28;20200;-65
2021/09/19 07:40:40;;;;;;;1.27;1.17;;;14.20;94.70;;;;;;5070713;28;20652;-65
2021/09/19 07:43:09;;;;;;;2.47;1.37;;;14.10;95.20;;;;;;5067825;28;20578;-65
2021/09/19 07:45:36;;;;;;;1.87;1.67;;;14.20;95.60;;;;;;5071096;28;20670;-65
2021/09/19 07:48:09;;;;;;;2.53;1.50;;;14.20;95.90;;;;;;5075758;28;20231;-66
2021/09/19 07:50:36;;;;;;;2.53;1.20;;;14.20;95.80;;;;;;5070712;28;20207;-66
2021/09/19 07:53:03;;;;;;;2.70;1.40;;;14.10;95.60;;;;;;5069378;28;20234;-66
2021/09/19 07:55:31;;;;;;;2.50;1.40;;;14.10;95.60;;;;;;5070029;28;20227;-65
2021/09/19 07:57:58;;;;;;;2.10;1.40;;;14.00;95.90;;;;;;5072262;28;20228;-66
2021/09/19 08:00:27;;;;;;;8.43;1.70;;;14.10;96.20;;;;;;5073245;28;20197;-66
2021/09/19 08:02:54;;;;;;;1.40;1.20;;;14.00;96.50;;;;;;5065102;28;20208;-66
2021/09/19 08:05:23;;;;;;;2.27;1.50;;;14.10;96.90;;;;;;5062509;28;20213;-66
2021/09/19 08:07:50;;;;;;;1.90;1.70;;;14.10;97.10;;;;;;5068697;28;20227;-66
2021/09/19 08:10:17;;;;;;;2.20;1.53;;;14.10;97.50;;;;;;5066378;28;20261;-66
2021/09/19 08:12:47;;;;;;;4.07;1.60;;;14.10;97.70;;;;;;5067456;28;20224;-66
2021/09/19 08:15:14;;;;;;;1.70;1.60;;;14.10;98.10;;;;;;5068583;28;20273;-66
2021/09/19 08:17:42;;;;;;;3.60;1.53;;;14.10;98.30;;;;;;5081752;28;20281;-66
2021/09/19 08:20:10;;;;;;;1.50;1.40;;;14.10;98.30;;;;;;5068810;28;20201;-66
2021/09/19 08:22:37;;;;;;;5.00;1.47;;;14.10;98.30;;;;;;5063752;28;20196;-66
2021/09/19 08:25:06;;;;;;;4.03;1.50;;;14.00;98.40;;;;;;5067647;28;20965;-66
2021/09/19 08:27:34;;;;;;;1.70;1.60;;;14.00;98.50;;;;;;5071546;28;20224;-66
2021/09/19 08:30:02;;;;;;;1.93;1.50;;;14.00;98.60;;;;;;5060778;28;20714;-64
2021/09/19 08:32:29;;;;;;;5.17;1.60;;;14.10;98.70;;;;;;5064386;28;20199;-66
2021/09/19 08:34:57;;;;;;;1.40;1.30;;;14.10;98.70;;;;;;5070453;28;20194;-66
2021/09/19 08:37:24;;;;;;;4.77;1.80;;;14.10;98.40;;;;;;5064727;28;20640;-66
2021/09/19 08:39:51;;;;;;;3.27;1.40;;;14.20;98.20;;;;;;5071407;28;20203;-66
2021/09/19 08:42:19;;;;;;;1.47;1.30;;;14.20;97.80;;;;;;5071045;28;20278;-66
2021/09/19 08:44:46;;;;;;;2.20;1.50;;;14.20;97.80;;;;;;5067323;28;20193;-66
2021/09/19 08:47:13;;;;;;;2.20;1.30;;;14.30;97.90;;;;;;5066528;28;20201;-67
2021/09/19 08:49:40;;;;;;;1.57;1.30;;;14.30;97.70;;;;;;5064125;28;20299;-67
2021/09/19 08:52:10;;;;;;;4.37;1.50;;;14.30;97.30;;;;;;5067764;28;20198;-67
2021/09/19 08:54:38;;;;;;;1.07;0.93;;;14.30;97.20;;;;;;5064933;28;20234;-67
2021/09/19 08:57:05;;;;;;;2.37;1.27;;;14.30;97.30;;;;;;5067340;28;20207;-67
2021/09/19 08:59:46;;;;;;;3.63;1.30;;;14.40;97.40;;;;;;5071396;28;20196;-67
2021/09/19 09:02:14;;;;;;;6.27;1.50;;;14.40;97.40;;;;;;5071597;28;20206;-67
2021/09/19 09:04:42;;;;;;;2.00;1.60;;;14.40;97.50;;;;;;5066514;28;20223;-66
2021/09/19 09:07:11;;;;;;;1.97;1.53;;;14.50;97.40;;;;;;5067684;28;20199;-67
2021/09/19 09:09:38;;;;;;;5.57;1.47;;;14.40;97.20;;;;;;5072292;28;20196;-66
2021/09/19 09:12:08;;;;;;;4.03;1.37;;;14.50;97.10;;;;;;5065338;28;20289;-67
2021/09/19 09:14:40;;;;;;;3.47;1.40;;;14.50;96.80;;;;;;5068057;28;20235;-67
2021/09/19 09:17:12;;;;;;;3.13;1.30;;;14.50;96.40;;;;;;5067102;28;20196;-67
2021/09/19 09:19:39;;;;;;;4.93;1.10;;;14.50;96.20;;;;;;5071864;28;20202;-67
2021/09/19 09:22:09;;;;;;;4.83;1.00;;;14.50;96.30;;;;;;5066741;28;20203;-67
2021/09/19 09:24:38;;;;;;;3.47;1.60;;;14.60;96.60;;;;;;5057054;28;20538;-67
2021/09/19 09:27:18;;;;;;;1.97;1.40;;;14.60;96.80;;;;;;5063769;28;21065;-66
2021/09/19 09:30:07;;;;;;;3.97;1.27;;;14.60;96.70;;;;;;5059023;28;20208;-67
2021/09/19 09:32:50;;;;;;;1.10;1.10;;;14.70;96.40;;;;;;5072086;28;20207;-67
2021/09/19 09:35:17;;;;;;;1.53;1.43;;;14.70;95.90;;;;;;5064536;28;20189;-66
2021/09/19 09:37:45;;;;;;;1.30;1.20;;;14.70;95.80;;;;;;5068399;28;20274;-67
2021/09/19 09:40:17;;;;;;;1.47;1.13;;;14.70;95.70;;;;;;5061939;28;20196;-67
2021/09/19 09:43:07;;;;;;;1.53;1.30;;;14.70;95.80;;;;;;5062037;28;20321;-67
2021/09/19 09:45:36;;;;;;;1.20;1.10;;;14.70;95.90;;;;;;5069400;28;20209;-67
2021/09/19 09:48:04;;;;;;;0.97;0.97;;;14.80;95.80;;;;;;5060700;28;20282;-67
2021/09/19 09:50:32;;;;;;;2.53;1.30;;;14.70;95.50;;;;;;5064557;28;20200;-67
2021/09/19 09:53:11;;;;;;;1.40;1.30;;;14.80;95.40;;;;;;5068400;28;21061;-67
2021/09/19 09:55:43;;;;;;;4.07;1.30;;;14.80;95.50;;;;;;5064899;28;20251;-67
2021/09/19 09:58:12;;;;;;;1.27;1.17;;;14.80;95.60;;;;;;5066653;28;20683;-68
2021/09/19 10:00:40;;;;;;;1.70;1.60;;;14.80;95.80;;;;;;5064769;28;20867;-67
2021/09/19 10:03:07;;;;;;;4.40;1.60;;;14.80;96.00;;;;;;5064078;28;20568;-67
2021/09/19 10:05:35;;;;;;;2.07;1.50;;;14.80;96.20;;;;;;5065954;28;20216;-67
2021/09/19 10:08:02;;;;;;;1.90;1.40;;;14.80;96.30;;;;;;5062113;28;20204;-67
2021/09/19 10:10:31;;;;;;;1.40;1.20;;;14.80;96.20;;;;;;5066488;28;20196;-67
2021/09/19 10:13:00;;;;;;;1.40;1.30;;;14.70;95.80;;;;;;5070894;28;20218;-67
2021/09/19 10:15:27;;;;;;;1.57;1.27;;;14.70;95.70;;;;;;5068158;28;20196;-67
2021/09/19 10:17:55;;;;;;;1.40;1.30;;;14.70;95.80;;;;;;5067967;28;20689;-67
2021/09/19 10:20:27;;;;;;;1.70;1.40;;;14.60;95.70;;;;;;5080297;28;20204;-68
2021/09/19 10:22:59;;;;;;;3.17;1.30;;;14.60;95.80;;;;;;5071359;28;20211;-68
2021/09/19 10:25:57;;;;;;;1.97;1.27;;;14.60;95.70;;;;;;5059686;28;20201;-67
2021/09/19 10:28:33;;;;;;;1.47;1.30;;;14.60;95.70;;;;;;5019067;28;20228;-67
2021/09/19 10:31:21;;;;;;;2.27;1.60;;;14.70;95.90;;;;;;5005842;28;20214;-67
2021/09/19 10:33:54;;;;;;;1.30;1.20;;;14.70;95.90;;;;;;5014368;28;20303;-68
2021/09/19 10:36:30;;;;;;;4.30;1.80;;;14.70;96.00;;;;;;5025498;28;20221;-68
2021/09/19 10:39:20;;;;;;;3.03;1.70;;;14.80;96.10;;;;;;5023116;28;20531;-67
2021/09/19 10:42:28;;;;;;;2.07;1.63;;;14.90;95.90;;;;;;5024532;28;20260;-68
2021/09/19 10:45:08;;;;;;;5.23;1.57;;;15.00;96.00;;;;;;5023139;28;20225;-67
2021/09/19 10:47:42;;;;;;;3.50;1.70;;;15.10;95.90;;;;;;5014454;28;20198;-68
2021/09/19 10:50:24;;;;;;;2.67;1.60;;;15.30;95.90;;;;;;5013632;28;20213;-68
2021/09/19 10:52:54;;;;;;;2.10;1.40;;;15.30;95.90;;;;;;5013060;28;20292;-67
2021/09/19 10:55:24;;;;;;;3.13;1.80;;;15.30;96.00;;;;;;5000992;28;20981;-68
2021/09/19 10:57:57;;;;;;;3.17;1.60;;;15.20;96.40;;;;;;4998609;28;20203;-67
2021/09/19 11:00:26;;;;;;;2.07;1.43;;;15.20;96.30;;;;;;4998251;28;20206;-67
2021/09/19 11:03:12;;;;;;;1.50;1.40;;;15.20;96.30;;;;;;5018278;28;20687;-68
2021/09/19 11:05:50;;;;;;;1.73;1.50;;;15.10;96.30;;;;;;5040260;28;20688;-68
2021/09/19 11:08:39;;;;;;;3.70;1.50;;;15.10;96.40;;;;;;5064800;28;20201;-67
2021/09/19 11:11:25;;;;;;;7.67;1.60;;;15.00;96.50;;;;;;5068703;28;20428;-67
2021/09/19 11:14:00;;;;;;;2.50;1.33;;;15.00;96.80;;;;;;5062096;28;20256;-68
2021/09/19 11:16:37;;;;;;;3.87;1.93;;;15.00;97.10;;;;;;5067927;28;20608;-67
2021/09/19 11:19:06;;;;;;;5.13;1.40;;;15.00;97.50;;;;;;5063056;28;20255;-68
2021/09/19 11:21:37;;;;;;;2.30;1.50;;;15.00;97.20;;;;;;5060341;28;20224;-67
2021/09/19 11:24:07;;;;;;;6.80;1.90;;;15.00;97.20;;;;;;5058500;28;20689;-68
2021/09/19 11:26:38;;;;;;;5.53;1.77;;;15.00;97.10;;;;;;5058552;28;20647;-67
2021/09/19 11:29:07;;;;;;;5.33;1.30;;;14.60;96.80;;;;;;5060983;28;20683;-67
2021/09/19 11:31:36;;;;;;;3.30;1.87;;;15.10;97.00;;;;;;5061188;28;20653;-67
2021/09/19 11:34:05;;;;;;;3.37;1.87;;;15.10;97.10;;;;;;5058969;28;20217;-67
2021/09/19 11:36:32;;;;;;;7.25;1.90;;;15.10;97.00;;;;;;5066830;28;20907;-67
2021/09/19 11:38:59;;;;;;;8.33;2.13;;;15.10;97.00;;;;;;5072656;28;20201;-67
2021/09/19 11:41:27;;;;;;;1.43;1.33;;;15.10;96.80;;;;;;5066327;28;20209;-67
2021/09/19 11:43:56;;;;;;;2.90;1.70;;;15.10;96.50;;;;;;5069596;28;20190;-67
2021/09/19 11:46:25;;;;;;;1.87;1.70;;;15.10;96.30;;;;;;5070332;28;20197;-67
2021/09/19 11:48:58;;;;;;;4.93;1.83;;;15.20;96.20;;;;;;5063419;28;20197;-67
2021/09/19 11:51:26;;;;;;;1.67;1.50;;;15.20;96.20;;;;;;5067901;28;20204;-67
2021/09/19 11:53:54;;;;;;;7.50;2.40;;;15.20;95.80;;;;;;5066939;28;20239;-65
2021/09/19 11:56:22;;;;;;;4.67;1.47;;;15.20;95.50;;;;;;5066723;28;20686;-67
2021/09/19 11:58:51;;;;;;;2.50;1.37;;;15.20;95.50;;;;;;5065768;28;20201;-67
2021/09/19 12:01:22;;;;;;;2.50;1.40;;;15.30;95.40;;;;;;5068068;28;20200;-67
2021/09/19 12:03:49;;;;;;;1.63;1.10;;;15.30;95.30;;;;;;5064130;28;20541;-67
2021/09/19 12:06:18;;;;;;;5.87;1.40;;;15.40;95.30;;;;;;5073504;28;20215;-67
2021/09/19 12:08:45;;;;;;;2.67;1.30;;;15.50;95.40;;;;;;5070150;28;20201;-67
2021/09/19 12:11:12;;;;;;;2.57;1.57;;;15.70;95.40;;;;;;5064136;28;20205;-67
2021/09/19 12:13:46;;;;;;;1.70;1.60;;;15.80;95.00;;;;;;5064373;28;20237;-67
2021/09/19 12:16:15;;;;;;;3.50;1.30;;;15.80;94.70;;;;;;5063595;28;20286;-67
2021/09/19 12:18:43;;;;;;;6.37;1.50;;;15.90;94.60;;;;;;5068433;28;20185;-67
2021/09/19 12:21:13;;;;;;;3.50;1.53;;;15.90;94.50;;;;;;5067303;28;20205;-67
2021/09/19 12:23:44;;;;;;;1.63;1.53;;;15.90;94.40;;;;;;5064697;28;20208;-67
2021/09/19 12:26:16;;;;;;;2.30;1.30;;;15.90;94.20;;;;;;5068504;28;20284;-67
2021/09/19 12:28:44;;;;;;;1.37;1.27;;;15.80;94.30;;;;;;5066659;28;20476;-67
2021/09/19 12:31:12;;;;;;;1.50;1.23;;;15.80;94.20;;;;;;5072822;28;20569;-66
2021/09/19 12:33:53;;;;;;;1.63;1.50;;;15.70;93.90;;;;;;5071371;28;20246;-66
2021/09/19 12:36:22;;;;;;;1.30;1.20;;;15.70;93.80;;;;;;5068638;28;20247;-66
2021/09/19 12:38:51;;;;;;;1.10;1.10;;;15.60;93.80;;;;;;5070420;28;20216;-66
2021/09/19 12:41:18;;;;;;;1.20;1.10;;;15.30;93.70;;;;;;5069777;28;20215;-66
2021/09/19 12:43:46;;;;;;;1.60;1.33;;;15.60;94.00;;;;;;5060203;28;20201;-66
2021/09/19 12:46:16;;;;;;;1.40;1.30;;;15.60;94.00;;;;;;5062407;28;20200;-66
2021/09/19 12:48:44;;;;;;;1.67;1.40;;;15.60;94.10;;;;;;5061529;28;20193;-66
2021/09/19 12:51:16;;;;;;;1.30;1.20;;;15.50;94.00;;;;;;5065481;28;20197;-67
2021/09/19 12:53:48;;;;;;;1.30;1.30;;;15.50;94.10;;;;;;5067202;28;20255;-65